CheckWX is a tool to help pilots better visualize weather data.  It is not intended as a substitute for an official pre-flight weather briefing.

09:44:37 UTC

KXNA TAF
Northwest Arkansas Regional Airport
Fayetteville/Springdale/Rogers, Arkansas, USA
KXNA 140520Z 1406/1506 19004KT P6SM SCT050 SCT250 FM141600 35007KT P6SM SCT040 SCT250 FM150000 35003KT P6SM SKC

Nov-14@
06:00 UTC

Nov-14 @ 06:00 UTC

Nov-14@
16:00 UTC

Nov-14 @ 16:00 UTC

KXNA 140520Z 1406/1506 19004KT P6SM SCT050 SCT250
Wind
  • 190° at 4 KTS
Cloud Levels
  • Scattered at 5,000' AGL
  • Scattered at 25,000' AGL

Nov-14@
16:00 UTC

Nov-14 @ 16:00 UTC

Nov-15@
00:00 UTC

Nov-15 @ 00:00 UTC

FM141600 35007KT P6SM SCT040 SCT250

From

From Standard forecast or significant change

Wind
  • 350° at 7 KTS
Cloud Levels
  • Scattered at 4,000' AGL
  • Scattered at 25,000' AGL

Nov-15@
00:00 UTC

Nov-15 @ 00:00 UTC

Nov-15@
06:00 UTC

Nov-15 @ 06:00 UTC

FM150000 35003KT P6SM SKC

From

From Standard forecast or significant change

Wind
  • 350° at 3 KTS
Cloud Levels
  • Clear skies